sensor_id;sensor_type;location;lat;lon;timestamp;temperature;humidity
2465;DHT22;1244;54.326;10.074;2023-06-14T00:00:31;14.90;99.90
2465;DHT22;1244;54.326;10.074;2023-06-14T00:02:56;15.10;99.90
2465;DHT22;1244;54.326;10.074;2023-06-14T00:05:22;14.80;99.90
2465;DHT22;1244;54.326;10.074;2023-06-14T00:07:48;15.00;99.90
2465;DHT22;1244;54.326;10.074;2023-06-14T00:10:15;15.00;99.90
2465;DHT22;1244;54.326;10.074;2023-06-14T00:12:41;14.90;99.90
2465;DHT22;1244;54.326;10.074;2023-06-14T00:15:07;14.80;99.90
2465;DHT22;1244;54.326;10.074;2023-06-14T00:17:35;14.80;99.90
2465;DHT22;1244;54.326;10.074;2023-06-14T00:20:03;14.80;99.90
2465;DHT22;1244;54.326;10.074;2023-06-14T00:22:32;14.90;99.90
2465;DHT22;1244;54.326;10.074;2023-06-14T00:24:58;14.90;99.90
2465;DHT22;1244;54.326;10.074;2023-06-14T00:27:23;14.70;99.90
2465;DHT22;1244;54.326;10.074;2023-06-14T00:29:50;14.80;99.90
2465;DHT22;1244;54.326;10.074;2023-06-14T00:32:15;14.70;99.90
2465;DHT22;1244;54.326;10.074;2023-06-14T00:34:41;14.80;99.90
2465;DHT22;1244;54.326;10.074;2023-06-14T00:37:06;14.80;99.90
2465;DHT22;1244;54.326;10.074;2023-06-14T00:39:32;14.80;99.90
2465;DHT22;1244;54.326;10.074;2023-06-14T00:41:57;14.80;99.90
2465;DHT22;1244;54.326;10.074;2023-06-14T00:44:24;14.60;99.90
2465;DHT22;1244;54.326;10.074;2023-06-14T00:46:50;14.80;99.90
2465;DHT22;1244;54.326;10.074;2023-06-14T00:49:17;14.80;99.90
2465;DHT22;1244;54.326;10.074;2023-06-14T00:51:43;14.70;99.90
2465;DHT22;1244;54.326;10.074;2023-06-14T00:54:09;14.80;99.90
2465;DHT22;1244;54.326;10.074;2023-06-14T00:56:38;14.60;99.90
2465;DHT22;1244;54.326;10.074;2023-06-14T00:59:04;14.70;99.90
2465;DHT22;1244;54.326;10.074;2023-06-14T01:01:31;14.60;99.90
2465;DHT22;1244;54.326;10.074;2023-06-14T01:04:00;14.80;99.90
2465;DHT22;1244;54.326;10.074;2023-06-14T01:06:49;14.80;99.90
2465;DHT22;1244;54.326;10.074;2023-06-14T01:09:29;14.60;99.90
2465;DHT22;1244;54.326;10.074;2023-06-14T01:12:21;14.60;99.90
2465;DHT22;1244;54.326;10.074;2023-06-14T01:14:50;14.60;99.90
2465;DHT22;1244;54.326;10.074;2023-06-14T01:17:17;14.60;99.90
2465;DHT22;1244;54.326;10.074;2023-06-14T01:19:43;14.70;99.90
2465;DHT22;1244;54.326;10.074;2023-06-14T01:22:09;14.60;99.90
2465;DHT22;1244;54.326;10.074;2023-06-14T01:24:36;14.60;99.90
2465;DHT22;1244;54.326;10.074;2023-06-14T01:27:02;14.60;99.90
2465;DHT22;1244;54.326;10.074;2023-06-14T01:29:29;14.70;99.90
2465;DHT22;1244;54.326;10.074;2023-06-14T01:32:01;14.50;99.90
2465;DHT22;1244;54.326;10.074;2023-06-14T01:34:27;14.40;99.90
2465;DHT22;1244;54.326;10.074;2023-06-14T01:36:53;14.50;99.90
2465;DHT22;1244;54.326;10.074;2023-06-14T01:39:22;14.50;99.90
2465;DHT22;1244;54.326;10.074;2023-06-14T01:41:49;14.50;99.90
2465;DHT22;1244;54.326;10.074;2023-06-14T01:44:16;14.70;99.90
2465;DHT22;1244;54.326;10.074;2023-06-14T01:46:43;14.60;99.90
2465;DHT22;1244;54.326;10.074;2023-06-14T01:49:09;14.60;99.90
2465;DHT22;1244;54.326;10.074;2023-06-14T01:51:34;14.70;99.90
2465;DHT22;1244;54.326;10.074;2023-06-14T01:54:00;14.60;99.90
2465;DHT22;1244;54.326;10.074;2023-06-14T01:56:26;14.50;99.90
2465;DHT22;1244;54.326;10.074;2023-06-14T01:58:52;14.50;99.90
2465;DHT22;1244;54.326;10.074;2023-06-14T02:01:19;14.50;99.90
2465;DHT22;1244;54.326;10.074;2023-06-14T02:03:47;14.50;99.90
2465;DHT22;1244;54.326;10.074;2023-06-14T02:06:13;14.40;99.90
2465;DHT22;1244;54.326;10.074;2023-06-14T02:08:41;14.40;99.90
2465;DHT22;1244;54.326;10.074;2023-06-14T02:11:06;14.60;99.90
2465;DHT22;1244;54.326;10.074;2023-06-14T02:13:32;14.50;99.90
2465;DHT22;1244;54.326;10.074;2023-06-14T02:15:57;14.40;99.90
2465;DHT22;1244;54.326;10.074;2023-06-14T02:18:24;14.30;99.90
2465;DHT22;1244;54.326;10.074;2023-06-14T02:20:50;14.40;99.90
2465;DHT22;1244;54.326;10.074;2023-06-14T02:23:16;14.30;99.90
2465;DHT22;1244;54.326;10.074;2023-06-14T02:25:41;14.40;99.90
2465;DHT22;1244;54.326;10.074;2023-06-14T02:28:08;14.40;99.90
2465;DHT22;1244;54.326;10.074;2023-06-14T02:30:33;14.30;99.90
2465;DHT22;1244;54.326;10.074;2023-06-14T02:32:59;14.20;99.90
2465;DHT22;1244;54.326;10.074;2023-06-14T02:35:25;14.30;99.90
2465;DHT22;1244;54.326;10.074;2023-06-14T02:37:52;14.30;99.90
2465;DHT22;1244;54.326;10.074;2023-06-14T02:40:19;14.30;99.90
2465;DHT22;1244;54.326;10.074;2023-06-14T02:42:44;14.50;99.90
2465;DHT22;1244;54.326;10.074;2023-06-14T02:45:10;14.30;99.90
2465;DHT22;1244;54.326;10.074;2023-06-14T02:47:35;14.40;99.90
2465;DHT22;1244;54.326;10.074;2023-06-14T02:50:01;14.20;99.90
2465;DHT22;1244;54.326;10.074;2023-06-14T02:52:28;14.20;99.90
2465;DHT22;1244;54.326;10.074;2023-06-14T02:54:53;14.20;99.90
2465;DHT22;1244;54.326;10.074;2023-06-14T02:57:20;14.20;99.90
2465;DHT22;1244;54.326;10.074;2023-06-14T02:59:45;14.20;99.90
2465;DHT22;1244;54.326;10.074;2023-06-14T03:02:11;14.20;99.90
2465;DHT22;1244;54.326;10.074;2023-06-14T03:04:36;14.30;99.90
2465;DHT22;1244;54.326;10.074;2023-06-14T03:07:06;14.20;99.90
2465;DHT22;1244;54.326;10.074;2023-06-14T03:09:35;14.30;99.90
2465;DHT22;1244;54.326;10.074;2023-06-14T03:12:01;14.20;99.90
2465;DHT22;1244;54.326;10.074;2023-06-14T03:14:28;14.30;99.90
2465;DHT22;1244;54.326;10.074;2023-06-14T03:16:54;14.30;99.90
2465;DHT22;1244;54.326;10.074;2023-06-14T03:19:22;14.20;99.90
2465;DHT22;1244;54.326;10.074;2023-06-14T03:21:48;14.10;99.90
2465;DHT22;1244;54.326;10.074;2023-06-14T03:24:14;14.30;99.90
2465;DHT22;1244;54.326;10.074;2023-06-14T03:26:41;14.20;99.90
2465;DHT22;1244;54.326;10.074;2023-06-14T03:29:07;14.20;99.90
2465;DHT22;1244;54.326;10.074;2023-06-14T03:31:34;14.30;99.90
2465;DHT22;1244;54.326;10.074;2023-06-14T03:34:00;14.20;99.90
2465;DHT22;1244;54.326;10.074;2023-06-14T03:36:26;14.20;99.90
2465;DHT22;1244;54.326;10.074;2023-06-14T03:38:51;14.20;99.90
2465;DHT22;1244;54.326;10.074;2023-06-14T03:41:17;14.30;99.90
2465;DHT22;1244;54.326;10.074;2023-06-14T03:43:42;14.30;99.90
2465;DHT22;1244;54.326;10.074;2023-06-14T03:46:08;14.30;99.90
2465;DHT22;1244;54.326;10.074;2023-06-14T03:48:33;14.30;99.90
2465;DHT22;1244;54.326;10.074;2023-06-14T03:50:59;14.40;99.90
2465;DHT22;1244;54.326;10.074;2023-06-14T03:53:24;14.30;99.90
2465;DHT22;1244;54.326;10.074;2023-06-14T03:55:50;14.40;99.90
2465;DHT22;1244;54.326;10.074;2023-06-14T03:58:19;14.40;99.90
2465;DHT22;1244;54.326;10.074;2023-06-14T04:00:44;14.30;99.90
2465;DHT22;1244;54.326;10.074;2023-06-14T04:03:10;14.40;99.90
2465;DHT22;1244;54.326;10.074;2023-06-14T04:05:38;14.40;99.90
2465;DHT22;1244;54.326;10.074;2023-06-14T04:08:07;14.30;99.90
2465;DHT22;1244;54.326;10.074;2023-06-14T04:10:34;14.40;99.90
2465;DHT22;1244;54.326;10.074;2023-06-14T04:13:00;14.40;99.90
2465;DHT22;1244;54.326;10.074;2023-06-14T04:15:25;14.50;99.90
2465;DHT22;1244;54.326;10.074;2023-06-14T04:17:53;14.40;99.90
2465;DHT22;1244;54.326;10.074;2023-06-14T04:20:22;14.60;99.90
2465;DHT22;1244;54.326;10.074;2023-06-14T04:22:49;14.50;99.90
2465;DHT22;1244;54.326;10.074;2023-06-14T04:25:15;14.50;99.90
2465;DHT22;1244;54.326;10.074;2023-06-14T04:27:40;14.70;99.90
2465;DHT22;1244;54.326;10.074;2023-06-14T04:30:07;14.70;99.90
2465;DHT22;1244;54.326;10.074;2023-06-14T04:32:33;14.70;99.90
2465;DHT22;1244;54.326;10.074;2023-06-14T04:35:00;14.60;99.90
2465;DHT22;1244;54.326;10.074;2023-06-14T04:37:27;14.90;99.90
2465;DHT22;1244;54.326;10.074;2023-06-14T04:39:55;14.80;99.90
2465;DHT22;1244;54.326;10.074;2023-06-14T04:42:24;14.80;99.90
2465;DHT22;1244;54.326;10.074;2023-06-14T04:44:51;15.00;99.90
2465;DHT22;1244;54.326;10.074;2023-06-14T04:47:20;15.00;99.90
2465;DHT22;1244;54.326;10.074;2023-06-14T04:49:46;14.90;99.90
2465;DHT22;1244;54.326;10.074;2023-06-14T04:52:13;15.00;99.90
2465;DHT22;1244;54.326;10.074;2023-06-14T04:54:39;15.10;99.90
2465;DHT22;1244;54.326;10.074;2023-06-14T04:57:07;15.20;99.90
2465;DHT22;1244;54.326;10.074;2023-06-14T04:59:33;15.30;99.90
2465;DHT22;1244;54.326;10.074;2023-06-14T05:02:01;15.30;99.90
2465;DHT22;1244;54.326;10.074;2023-06-14T05:04:26;15.30;99.90
2465;DHT22;1244;54.326;10.074;2023-06-14T05:06:53;15.30;99.90
2465;DHT22;1244;54.326;10.074;2023-06-14T05:09:20;15.40;99.90
2465;DHT22;1244;54.326;10.074;2023-06-14T05:11:46;15.60;99.90
2465;DHT22;1244;54.326;10.074;2023-06-14T05:14:13;15.60;99.90
2465;DHT22;1244;54.326;10.074;2023-06-14T05:16:39;15.60;99.90
2465;DHT22;1244;54.326;10.074;2023-06-14T05:19:06;15.80;99.90
2465;DHT22;1244;54.326;10.074;2023-06-14T05:21:31;15.70;99.90
2465;DHT22;1244;54.326;10.074;2023-06-14T05:24:00;16.00;99.90
2465;DHT22;1244;54.326;10.074;2023-06-14T05:26:26;16.00;99.90
2465;DHT22;1244;54.326;10.074;2023-06-14T05:28:58;16.00;99.90
2465;DHT22;1244;54.326;10.074;2023-06-14T05:31:26;16.20;99.90
2465;DHT22;1244;54.326;10.074;2023-06-14T05:33:52;16.30;99.90
2465;DHT22;1244;54.326;10.074;2023-06-14T05:36:18;16.30;99.90
2465;DHT22;1244;54.326;10.074;2023-06-14T05:38:45;16.40;99.90
2465;DHT22;1244;54.326;10.074;2023-06-14T05:41:10;16.50;99.90
2465;DHT22;1244;54.326;10.074;2023-06-14T05:43:36;16.60;99.90
2465;DHT22;1244;54.326;10.074;2023-06-14T05:46:01;16.70;99.90
2465;DHT22;1244;54.326;10.074;2023-06-14T05:48:27;16.60;99.90
2465;DHT22;1244;54.326;10.074;2023-06-14T05:50:53;16.70;99.90
2465;DHT22;1244;54.326;10.074;2023-06-14T05:53:18;16.80;99.90
2465;DHT22;1244;54.326;10.074;2023-06-14T05:55:44;16.80;99.90
2465;DHT22;1244;54.326;10.074;2023-06-14T05:58:10;16.70;99.90
2465;DHT22;1244;54.326;10.074;2023-06-14T06:00:36;16.90;99.90
2465;DHT22;1244;54.326;10.074;2023-06-14T06:03:01;17.00;99.90
2465;DHT22;1244;54.326;10.074;2023-06-14T06:05:27;17.10;99.90
2465;DHT22;1244;54.326;10.074;2023-06-14T06:07:52;17.10;99.90
2465;DHT22;1244;54.326;10.074;2023-06-14T06:10:18;17.20;99.90
2465;DHT22;1244;54.326;10.074;2023-06-14T06:12:44;17.40;99.90
2465;DHT22;1244;54.326;10.074;2023-06-14T06:15:10;17.40;99.90
2465;DHT22;1244;54.326;10.074;2023-06-14T06:17:39;17.40;99.90
2465;DHT22;1244;54.326;10.074;2023-06-14T06:20:05;17.40;99.90
2465;DHT22;1244;54.326;10.074;2023-06-14T06:22:33;17.50;99.90
2465;DHT22;1244;54.326;10.074;2023-06-14T06:24:59;17.60;99.90
2465;DHT22;1244;54.326;10.074;2023-06-14T06:27:24;17.70;99.90
2465;DHT22;1244;54.326;10.074;2023-06-14T06:29:51;17.80;99.90
2465;DHT22;1244;54.326;10.074;2023-06-14T06:32:17;17.70;99.90
2465;DHT22;1244;54.326;10.074;2023-06-14T06:34:42;17.90;99.90
2465;DHT22;1244;54.326;10.074;2023-06-14T06:37:08;17.90;99.90
2465;DHT22;1244;54.326;10.074;2023-06-14T06:39:33;18.00;99.90
2465;DHT22;1244;54.326;10.074;2023-06-14T06:41:59;18.00;99.90
2465;DHT22;1244;54.326;10.074;2023-06-14T06:44:24;18.20;99.90
2465;DHT22;1244;54.326;10.074;2023-06-14T06:46:50;18.20;99.90
2465;DHT22;1244;54.326;10.074;2023-06-14T06:49:15;18.20;99.90
2465;DHT22;1244;54.326;10.074;2023-06-14T06:51:41;18.30;99.90
2465;DHT22;1244;54.326;10.074;2023-06-14T06:54:08;18.50;99.90
2465;DHT22;1244;54.326;10.074;2023-06-14T06:56:34;18.40;99.90
2465;DHT22;1244;54.326;10.074;2023-06-14T06:59:00;18.50;99.90
2465;DHT22;1244;54.326;10.074;2023-06-14T07:01:26;18.60;99.90
2465;DHT22;1244;54.326;10.074;2023-06-14T07:03:54;18.80;99.90
2465;DHT22;1244;54.326;10.074;2023-06-14T07:06:20;18.70;99.90
2465;DHT22;1244;54.326;10.074;2023-06-14T07:08:45;18.90;99.90
2465;DHT22;1244;54.326;10.074;2023-06-14T07:11:13;18.80;99.90
2465;DHT22;1244;54.326;10.074;2023-06-14T07:13:39;18.90;99.90
2465;DHT22;1244;54.326;10.074;2023-06-14T07:16:05;19.00;99.90
2465;DHT22;1244;54.326;10.074;2023-06-14T07:18:31;18.80;99.90
2465;DHT22;1244;54.326;10.074;2023-06-14T07:20:56;18.90;99.90
2465;DHT22;1244;54.326;10.074;2023-06-14T07:23:22;19.10;99.90
2465;DHT22;1244;54.326;10.074;2023-06-14T07:25:48;19.00;99.90
2465;DHT22;1244;54.326;10.074;2023-06-14T07:28:14;19.20;99.90
2465;DHT22;1244;54.326;10.074;2023-06-14T07:30:39;19.40;99.90
2465;DHT22;1244;54.326;10.074;2023-06-14T07:33:05;19.50;99.90
2465;DHT22;1244;54.326;10.074;2023-06-14T07:35:31;19.60;99.90
2465;DHT22;1244;54.326;10.074;2023-06-14T07:37:56;19.60;99.90
2465;DHT22;1244;54.326;10.074;2023-06-14T07:40:22;19.90;99.90
2465;DHT22;1244;54.326;10.074;2023-06-14T07:42:47;19.90;99.90
2465;DHT22;1244;54.326;10.074;2023-06-14T07:45:15;19.80;99.90
2465;DHT22;1244;54.326;10.074;2023-06-14T07:47:40;19.70;99.90
2465;DHT22;1244;54.326;10.074;2023-06-14T07:50:06;19.80;99.90
2465;DHT22;1244;54.326;10.074;2023-06-14T07:52:32;20.10;99.90
2465;DHT22;1244;54.326;10.074;2023-06-14T07:54:57;20.20;99.90
2465;DHT22;1244;54.326;10.074;2023-06-14T07:57:23;20.50;99.90
2465;DHT22;1244;54.326;10.074;2023-06-14T07:59:49;20.40;99.90
2465;DHT22;1244;54.326;10.074;2023-06-14T08:02:15;20.20;99.90
2465;DHT22;1244;54.326;10.074;2023-06-14T08:04:41;20.10;99.90
2465;DHT22;1244;54.326;10.074;2023-06-14T08:07:07;20.40;99.90
2465;DHT22;1244;54.326;10.074;2023-06-14T08:09:33;20.50;99.90
2465;DHT22;1244;54.326;10.074;2023-06-14T08:11:59;20.50;99.90
2465;DHT22;1244;54.326;10.074;2023-06-14T08:14:24;20.60;99.90
2465;DHT22;1244;54.326;10.074;2023-06-14T08:16:50;20.70;99.90
2465;DHT22;1244;54.326;10.074;2023-06-14T08:19:15;20.80;99.90
2465;DHT22;1244;54.326;10.074;2023-06-14T08:21:42;21.00;99.90
2465;DHT22;1244;54.326;10.074;2023-06-14T08:24:10;21.00;99.90
2465;DHT22;1244;54.326;10.074;2023-06-14T08:26:37;21.20;99.90
2465;DHT22;1244;54.326;10.074;2023-06-14T08:29:03;21.20;99.90
2465;DHT22;1244;54.326;10.074;2023-06-14T08:31:29;21.20;99.90
2465;DHT22;1244;54.326;10.074;2023-06-14T08:33:54;21.40;99.90
2465;DHT22;1244;54.326;10.074;2023-06-14T08:36:20;21.50;99.90
2465;DHT22;1244;54.326;10.074;2023-06-14T08:38:45;21.70;99.90
2465;DHT22;1244;54.326;10.074;2023-06-14T08:41:12;21.70;99.90
2465;DHT22;1244;54.326;10.074;2023-06-14T08:43:41;22.10;99.90
2465;DHT22;1244;54.326;10.074;2023-06-14T08:46:07;21.90;99.90
2465;DHT22;1244;54.326;10.074;2023-06-14T08:48:36;22.10;99.90
2465;DHT22;1244;54.326;10.074;2023-06-14T08:51:04;22.10;99.90
2465;DHT22;1244;54.326;10.074;2023-06-14T08:53:33;22.10;99.90
2465;DHT22;1244;54.326;10.074;2023-06-14T08:56:00;22.00;99.90
2465;DHT22;1244;54.326;10.074;2023-06-14T08:58:33;22.20;99.90
2465;DHT22;1244;54.326;10.074;2023-06-14T09:01:02;22.40;99.90
2465;DHT22;1244;54.326;10.074;2023-06-14T09:03:28;22.60;99.90
2465;DHT22;1244;54.326;10.074;2023-06-14T09:05:59;22.70;99.90
2465;DHT22;1244;54.326;10.074;2023-06-14T09:08:26;22.70;99.90
2465;DHT22;1244;54.326;10.074;2023-06-14T09:10:55;22.70;99.90
2465;DHT22;1244;54.326;10.074;2023-06-14T09:13:22;22.70;99.90
2465;DHT22;1244;54.326;10.074;2023-06-14T09:15:48;22.90;99.90
2465;DHT22;1244;54.326;10.074;2023-06-14T09:18:13;23.20;99.90
2465;DHT22;1244;54.326;10.074;2023-06-14T09:20:40;23.30;99.90
2465;DHT22;1244;54.326;10.074;2023-06-14T09:23:06;23.20;99.90
2465;DHT22;1244;54.326;10.074;2023-06-14T09:25:41;23.30;99.90
2465;DHT22;1244;54.326;10.074;2023-06-14T09:28:07;22.90;99.90
2465;DHT22;1244;54.326;10.074;2023-06-14T09:30:33;23.00;99.90
2465;DHT22;1244;54.326;10.074;2023-06-14T09:32:59;23.30;99.90
2465;DHT22;1244;54.326;10.074;2023-06-14T09:35:24;23.60;99.90
2465;DHT22;1244;54.326;10.074;2023-06-14T09:37:50;23.80;99.90
2465;DHT22;1244;54.326;10.074;2023-06-14T09:40:20;23.90;99.90
2465;DHT22;1244;54.326;10.074;2023-06-14T09:42:46;24.10;99.90
2465;DHT22;1244;54.326;10.074;2023-06-14T09:45:12;24.30;99.90
2465;DHT22;1244;54.326;10.074;2023-06-14T09:47:39;24.20;99.90
2465;DHT22;1244;54.326;10.074;2023-06-14T09:50:06;24.30;99.90
2465;DHT22;1244;54.326;10.074;2023-06-14T09:52:32;24.20;99.90
2465;DHT22;1244;54.326;10.074;2023-06-14T09:54:59;24.50;99.90
2465;DHT22;1244;54.326;10.074;2023-06-14T09:57:25;24.50;99.90
2465;DHT22;1244;54.326;10.074;2023-06-14T09:59:59;24.10;99.90
2465;DHT22;1244;54.326;10.074;2023-06-14T10:02:31;24.50;99.90
2465;DHT22;1244;54.326;10.074;2023-06-14T10:05:05;24.50;99.90
2465;DHT22;1244;54.326;10.074;2023-06-14T10:07:52;25.00;99.90
2465;DHT22;1244;54.326;10.074;2023-06-14T10:10:18;24.80;99.90
2465;DHT22;1244;54.326;10.074;2023-06-14T10:12:44;24.90;99.90
2465;DHT22;1244;54.326;10.074;2023-06-14T10:15:11;25.30;99.90
2465;DHT22;1244;54.326;10.074;2023-06-14T10:17:50;25.40;99.90
2465;DHT22;1244;54.326;10.074;2023-06-14T10:20:42;25.50;99.90
2465;DHT22;1244;54.326;10.074;2023-06-14T10:23:17;25.70;99.90
2465;DHT22;1244;54.326;10.074;2023-06-14T10:25:44;26.00;99.90
2465;DHT22;1244;54.326;10.074;2023-06-14T10:28:21;26.20;99.90
2465;DHT22;1244;54.326;10.074;2023-06-14T10:33:49;25.80;99.90
2465;DHT22;1244;54.326;10.074;2023-06-14T10:36:30;26.50;99.90
2465;DHT22;1244;54.326;10.074;2023-06-14T10:39:16;26.70;99.90
2465;DHT22;1244;54.326;10.074;2023-06-14T10:41:53;26.50;99.90
2465;DHT22;1244;54.326;10.074;2023-06-14T10:46:53;25.90;99.90
2465;DHT22;1244;54.326;10.074;2023-06-14T10:49:19;26.20;99.90
2465;DHT22;1244;54.326;10.074;2023-06-14T10:51:50;26.50;99.90
2465;DHT22;1244;54.326;10.074;2023-06-14T10:54:17;26.70;99.90
2465;DHT22;1244;54.326;10.074;2023-06-14T10:56:51;27.30;99.90
2465;DHT22;1244;54.326;10.074;2023-06-14T10:59:18;27.60;99.90
2465;DHT22;1244;54.326;10.074;2023-06-14T11:04:12;27.30;99.30
2465;DHT22;1244;54.326;10.074;2023-06-14T11:06:50;27.50;99.90
2465;DHT22;1244;54.326;10.074;2023-06-14T11:11:51;28.10;98.40
2465;DHT22;1244;54.326;10.074;2023-06-14T11:14:19;27.70;97.00
2465;DHT22;1244;54.326;10.074;2023-06-14T11:16:51;27.90;98.10
2465;DHT22;1244;54.326;10.074;2023-06-14T11:19:16;27.70;98.40
2465;DHT22;1244;54.326;10.074;2023-06-14T11:21:47;27.80;98.50
2465;DHT22;1244;54.326;10.074;2023-06-14T11:24:13;27.40;97.70
2465;DHT22;1244;54.326;10.074;2023-06-14T11:26:40;27.20;97.70
2465;DHT22;1244;54.326;10.074;2023-06-14T11:29:05;28.10;96.50
2465;DHT22;1244;54.326;10.074;2023-06-14T11:31:31;28.00;96.90
2465;DHT22;1244;54.326;10.074;2023-06-14T11:33:58;28.40;96.70
2465;DHT22;1244;54.326;10.074;2023-06-14T11:36:30;28.90;96.80
2465;DHT22;1244;54.326;10.074;2023-06-14T11:39:03;28.90;96.50
2465;DHT22;1244;54.326;10.074;2023-06-14T11:41:39;28.80;96.40
2465;DHT22;1244;54.326;10.074;2023-06-14T11:44:05;29.10;97.50
2465;DHT22;1244;54.326;10.074;2023-06-14T11:46:31;29.20;96.30
2465;DHT22;1244;54.326;10.074;2023-06-14T11:48:57;28.70;95.90
2465;DHT22;1244;54.326;10.074;2023-06-14T11:51:23;28.50;95.50
2465;DHT22;1244;54.326;10.074;2023-06-14T11:53:49;28.70;95.70
2465;DHT22;1244;54.326;10.074;2023-06-14T11:56:15;29.00;95.30
2465;DHT22;1244;54.326;10.074;2023-06-14T11:58:43;29.10;96.00
2465;DHT22;1244;54.326;10.074;2023-06-14T12:01:08;29.50;94.30
2465;DHT22;1244;54.326;10.074;2023-06-14T12:03:34;29.40;94.80
2465;DHT22;1244;54.326;10.074;2023-06-14T12:06:07;29.10;93.60
2465;DHT22;1244;54.326;10.074;2023-06-14T12:08:34;28.70;93.90
2465;DHT22;1244;54.326;10.074;2023-06-14T12:11:06;29.20;94.60
2465;DHT22;1244;54.326;10.074;2023-06-14T12:13:33;28.90;93.80
2465;DHT22;1244;54.326;10.074;2023-06-14T12:15:59;28.50;94.00
2465;DHT22;1244;54.326;10.074;2023-06-14T12:18:35;28.60;94.30
2465;DHT22;1244;54.326;10.074;2023-06-14T12:21:01;28.60;94.90
2465;DHT22;1244;54.326;10.074;2023-06-14T12:23:39;29.20;94.50
2465;DHT22;1244;54.326;10.074;2023-06-14T12:26:04;29.20;93.50
2465;DHT22;1244;54.326;10.074;2023-06-14T12:28:31;29.40;94.20
2465;DHT22;1244;54.326;10.074;2023-06-14T12:30:57;29.50;93.40
2465;DHT22;1244;54.326;10.074;2023-06-14T12:33:24;29.40;93.50
2465;DHT22;1244;54.326;10.074;2023-06-14T12:35:50;29.20;94.30
2465;DHT22;1244;54.326;10.074;2023-06-14T12:38:16;29.10;93.40
2465;DHT22;1244;54.326;10.074;2023-06-14T12:40:41;28.70;92.50
2465;DHT22;1244;54.326;10.074;2023-06-14T12:43:07;29.30;94.30
2465;DHT22;1244;54.326;10.074;2023-06-14T12:45:33;29.10;91.10
2465;DHT22;1244;54.326;10.074;2023-06-14T12:47:58;29.10;91.80
2465;DHT22;1244;54.326;10.074;2023-06-14T12:50:24;28.20;92.20
2465;DHT22;1244;54.326;10.074;2023-06-14T12:52:50;28.20;93.20
2465;DHT22;1244;54.326;10.074;2023-06-14T12:55:16;28.60;92.60
2465;DHT22;1244;54.326;10.074;2023-06-14T12:57:44;28.80;91.60
2465;DHT22;1244;54.326;10.074;2023-06-14T13:00:10;28.60;92.10
2465;DHT22;1244;54.326;10.074;2023-06-14T13:02:36;28.40;92.20
2465;DHT22;1244;54.326;10.074;2023-06-14T13:05:01;28.20;92.60
2465;DHT22;1244;54.326;10.074;2023-06-14T13:07:29;28.20;93.00
2465;DHT22;1244;54.326;10.074;2023-06-14T13:09:54;28.20;93.40
2465;DHT22;1244;54.326;10.074;2023-06-14T13:12:20;28.50;92.30
2465;DHT22;1244;54.326;10.074;2023-06-14T13:14:45;28.50;92.60
2465;DHT22;1244;54.326;10.074;2023-06-14T13:17:11;28.00;93.00
2465;DHT22;1244;54.326;10.074;2023-06-14T13:19:37;27.00;95.10
2465;DHT22;1244;54.326;10.074;2023-06-14T13:22:03;26.80;96.40
2465;DHT22;1244;54.326;10.074;2023-06-14T13:24:29;26.60;96.70
2465;DHT22;1244;54.326;10.074;2023-06-14T13:26:55;26.70;96.40
2465;DHT22;1244;54.326;10.074;2023-06-14T13:29:21;26.60;96.90
2465;DHT22;1244;54.326;10.074;2023-06-14T13:31:46;26.40;96.10
2465;DHT22;1244;54.326;10.074;2023-06-14T13:34:12;26.40;95.80
2465;DHT22;1244;54.326;10.074;2023-06-14T13:36:38;25.80;96.50
2465;DHT22;1244;54.326;10.074;2023-06-14T13:39:04;25.80;96.80
2465;DHT22;1244;54.326;10.074;2023-06-14T13:41:29;25.60;95.60
2465;DHT22;1244;54.326;10.074;2023-06-14T13:44:00;25.70;96.80
2465;DHT22;1244;54.326;10.074;2023-06-14T13:46:26;25.70;96.90
2465;DHT22;1244;54.326;10.074;2023-06-14T13:48:52;25.50;94.70
2465;DHT22;1244;54.326;10.074;2023-06-14T13:51:17;25.50;96.70
2465;DHT22;1244;54.326;10.074;2023-06-14T13:53:47;25.50;97.60
2465;DHT22;1244;54.326;10.074;2023-06-14T13:56:13;25.70;97.70
2465;DHT22;1244;54.326;10.074;2023-06-14T13:58:38;26.00;96.70
2465;DHT22;1244;54.326;10.074;2023-06-14T14:01:05;25.80;96.50
2465;DHT22;1244;54.326;10.074;2023-06-14T14:03:30;25.30;96.80
2465;DHT22;1244;54.326;10.074;2023-06-14T14:05:56;25.20;97.70
2465;DHT22;1244;54.326;10.074;2023-06-14T14:08:21;25.30;97.70
2465;DHT22;1244;54.326;10.074;2023-06-14T14:10:47;25.30;98.30
2465;DHT22;1244;54.326;10.074;2023-06-14T14:13:12;25.50;97.30
2465;DHT22;1244;54.326;10.074;2023-06-14T14:15:38;25.00;96.90
2465;DHT22;1244;54.326;10.074;2023-06-14T14:18:03;25.30;97.90
2465;DHT22;1244;54.326;10.074;2023-06-14T14:20:31;25.30;98.00
2465;DHT22;1244;54.326;10.074;2023-06-14T14:22:56;25.30;97.40
2465;DHT22;1244;54.326;10.074;2023-06-14T14:25:22;25.20;97.30
2465;DHT22;1244;54.326;10.074;2023-06-14T14:27:47;25.30;97.80
2465;DHT22;1244;54.326;10.074;2023-06-14T14:30:13;25.20;96.80
2465;DHT22;1244;54.326;10.074;2023-06-14T14:32:40;25.10;97.30
2465;DHT22;1244;54.326;10.074;2023-06-14T14:35:06;25.20;98.40
2465;DHT22;1244;54.326;10.074;2023-06-14T14:37:32;25.00;98.40
2465;DHT22;1244;54.326;10.074;2023-06-14T14:39:57;25.20;97.40
2465;DHT22;1244;54.326;10.074;2023-06-14T14:42:23;25.00;96.80
2465;DHT22;1244;54.326;10.074;2023-06-14T14:44:48;25.00;96.60
2465;DHT22;1244;54.326;10.074;2023-06-14T14:47:15;25.30;97.00
2465;DHT22;1244;54.326;10.074;2023-06-14T14:49:40;25.30;96.90
2465;DHT22;1244;54.326;10.074;2023-06-14T14:52:07;25.00;97.40
2465;DHT22;1244;54.326;10.074;2023-06-14T14:54:33;24.90;97.90
2465;DHT22;1244;54.326;10.074;2023-06-14T14:56:58;24.50;97.40
2465;DHT22;1244;54.326;10.074;2023-06-14T14:59:23;24.60;97.10
2465;DHT22;1244;54.326;10.074;2023-06-14T15:01:49;24.50;97.80
2465;DHT22;1244;54.326;10.074;2023-06-14T15:04:16;24.60;98.20
2465;DHT22;1244;54.326;10.074;2023-06-14T15:06:41;24.70;97.30
2465;DHT22;1244;54.326;10.074;2023-06-14T15:09:07;24.70;97.80
2465;DHT22;1244;54.326;10.074;2023-06-14T15:11:32;24.70;97.20
2465;DHT22;1244;54.326;10.074;2023-06-14T15:13:58;24.50;97.20
2465;DHT22;1244;54.326;10.074;2023-06-14T15:16:23;24.50;97.50
2465;DHT22;1244;54.326;10.074;2023-06-14T15:18:49;24.70;95.90
2465;DHT22;1244;54.326;10.074;2023-06-14T15:21:14;24.40;96.60
2465;DHT22;1244;54.326;10.074;2023-06-14T15:23:40;24.40;96.90
2465;DHT22;1244;54.326;10.074;2023-06-14T15:26:06;24.30;97.30
2465;DHT22;1244;54.326;10.074;2023-06-14T15:28:31;23.90;96.60
2465;DHT22;1244;54.326;10.074;2023-06-14T15:30:58;24.20;96.80
2465;DHT22;1244;54.326;10.074;2023-06-14T15:33:24;24.20;96.80
2465;DHT22;1244;54.326;10.074;2023-06-14T15:35:50;23.90;97.40
2465;DHT22;1244;54.326;10.074;2023-06-14T15:38:15;23.80;97.80
2465;DHT22;1244;54.326;10.074;2023-06-14T15:40:41;23.90;98.30
2465;DHT22;1244;54.326;10.074;2023-06-14T15:43:06;23.60;98.50
2465;DHT22;1244;54.326;10.074;2023-06-14T15:45:32;23.40;99.10
2465;DHT22;1244;54.326;10.074;2023-06-14T15:47:57;23.60;99.30
2465;DHT22;1244;54.326;10.074;2023-06-14T15:50:23;23.70;99.40
2465;DHT22;1244;54.326;10.074;2023-06-14T15:52:48;23.80;98.20